Time;durP1;ratioP1;P1;durP2;ratioP2;P2;SDS_P1;SDS_P2;PMS_P1;PMS_P2;Temp;Humidity;BMP_temperature;BMP_pressure;BME280_temperature;BME280_humidity;BME280_pressure;Samples;Min_cycle;Max_cycle;Signal;HPM_P1;HPM_P2
2022/04/04 00:01:44;;;;;;;;;11.00;9.75;;;;;4.78;57.83;101468.22;5065164;27;45411;-74
2022/04/04 00:04:09;;;;;;;;;14.25;12.50;;;;;4.75;57.92;101479.56;5077063;28;45395;-74
2022/04/04 00:06:35;;;;;;;;;12.50;9.00;;;;;4.73;58.18;101481.22;5068571;27;45576;-75
2022/04/04 00:09:00;;;;;;;;;10.50;9.25;;;;;4.72;58.24;101482.13;5056364;28;45350;-75
2022/04/04 00:11:25;;;;;;;;;6.00;6.00;;;;;4.64;57.87;101467.97;5055388;28;45505;-74
2022/04/04 00:13:51;;;;;;;;;8.75;5.00;;;;;4.67;58.15;101477.63;5038071;28;45532;-75
2022/04/04 00:16:16;;;;;;;;;6.50;6.00;;;;;4.64;58.53;101481.06;5056375;28;45357;-74
2022/04/04 00:18:41;;;;;;;;;9.50;7.50;;;;;4.61;58.29;101478.41;5055503;28;45709;-75
2022/04/04 00:21:07;;;;;;;;;8.50;7.50;;;;;4.60;58.41;101477.53;5055932;28;45379;-75
2022/04/04 00:23:32;;;;;;;;;9.00;8.50;;;;;4.55;58.52;101476.53;5017521;28;45490;-75
2022/04/04 00:25:58;;;;;;;;;5.50;5.50;;;;;4.56;58.40;101480.94;5036418;28;45478;-77
2022/04/04 00:28:23;;;;;;;;;9.75;8.50;;;;;4.50;58.63;101467.72;5036754;28;46000;-76
2022/04/04 00:30:49;;;;;;;;;8.50;7.00;;;;;4.56;58.87;101469.59;5039871;28;45340;-74
2022/04/04 00:33:14;;;;;;;;;9.75;6.00;;;;;4.52;58.82;101471.25;5037925;28;45537;-75
2022/04/04 00:35:39;;;;;;;;;7.25;6.25;;;;;4.49;58.63;101468.56;5056628;28;45597;-75
2022/04/04 00:38:08;;;;;;;;;11.00;10.00;;;;;4.50;59.45;101474.69;5054375;28;46114;-74
2022/04/04 00:40:34;;;;;;;;;14.75;9.25;;;;;4.46;58.94;101465.88;5055352;28;45504;-75
2022/04/04 00:42:59;;;;;;;;;3.75;3.50;;;;;4.43;59.34;101464.13;5055786;28;45313;-76
2022/04/04 00:45:24;;;;;;;;;6.50;5.00;;;;;4.42;58.77;101457.09;5056183;28;45594;-75
2022/04/04 00:47:50;;;;;;;;;6.25;6.25;;;;;4.39;58.71;101457.03;5055377;28;45391;-73
2022/04/04 00:50:17;;;;;;;;;6.75;6.75;;;;;4.39;58.86;101461.41;5038428;28;45886;-79
2022/04/04 00:52:42;;;;;;;;;6.75;6.00;;;;;4.38;58.96;101463.13;5059159;28;45422;-78
2022/04/04 00:55:09;;;;;;;;;4.00;3.00;;;;;4.37;58.59;101460.47;5057687;28;45403;-79
2022/04/04 00:57:38;;;;;;;;;7.00;7.00;;;;;4.34;58.68;101458.69;5056088;28;46223;-79
2022/04/04 01:00:06;;;;;;;;;6.00;6.00;;;;;4.32;58.62;101455.16;5060418;28;45516;-78
2022/04/04 01:02:31;;;;;;;;;6.75;6.00;;;;;4.31;58.45;101460.34;5056981;28;45743;-78
2022/04/04 01:04:56;;;;;;;;;6.00;4.00;;;;;4.26;58.82;101452.41;5057066;28;45609;-79
2022/04/04 01:07:22;;;;;;;;;6.00;5.00;;;;;4.21;58.33;101444.47;5037293;28;45425;-79
2022/04/04 01:09:48;;;;;;;;;6.75;6.00;;;;;4.23;58.70;101454.97;5055428;28;45410;-79
2022/04/04 01:12:13;;;;;;;;;9.50;6.50;;;;;4.22;58.52;101454.09;5032309;28;45465;-74
2022/04/04 01:14:41;;;;;;;;;5.00;5.00;;;;;4.22;58.03;101455.81;5036016;28;45403;-74
2022/04/04 01:17:07;;;;;;;;;6.25;3.25;;;;;4.21;58.11;101451.44;5035657;28;45673;-75
2022/04/04 01:19:36;;;;;;;;;7.00;6.00;;;;;4.21;58.03;101454.06;5037362;28;45491;-75
2022/04/04 01:22:07;;;;;;;;;8.50;6.25;;;;;4.18;58.66;101451.41;5055183;28;46013;-74
2022/04/04 01:24:33;;;;;;;;;12.75;9.50;;;;;4.16;58.46;101455.69;5036387;28;45675;-75
2022/04/04 01:27:00;;;;;;;;;6.75;6.25;;;;;4.12;58.10;101443.41;5055199;28;45369;-74
2022/04/04 01:29:25;;;;;;;;;8.50;6.25;;;;;4.09;58.46;101442.47;5055692;28;45274;-75
2022/04/04 01:31:52;;;;;;;;;8.00;5.50;;;;;4.07;58.19;101452.03;5054792;28;45497;-75
2022/04/04 01:34:19;;;;;;;;;3.25;3.25;;;;;4.06;58.09;101438.94;5055284;28;45580;-75
2022/04/04 01:36:44;;;;;;;;;6.00;3.50;;;;;4.03;57.57;101439.75;5054018;28;46023;-75
2022/04/04 01:39:10;;;;;;;;;4.00;4.00;;;;;4.01;57.66;101435.31;5054770;28;45352;-74
2022/04/04 01:41:35;;;;;;;;;9.50;8.00;;;;;3.99;57.42;101435.28;5073804;28;45481;-75
2022/04/04 01:44:01;;;;;;;;;3.50;3.50;;;;;4.00;57.73;101434.44;5075264;28;49792;-75
2022/04/04 01:46:29;;;;;;;;;9.75;7.00;;;;;3.96;58.17;101432.63;5063958;28;45624;-75
2022/04/04 01:48:57;;;;;;;;;4.75;3.25;;;;;3.97;57.70;101438.75;5055001;28;45384;-75
2022/04/04 01:51:23;;;;;;;;;3.00;3.00;;;;;3.90;57.64;101420.31;5053447;28;45542;-75
2022/04/04 01:53:48;;;;;;;;;3.50;3.00;;;;;3.91;57.36;101431.66;5053816;28;45466;-75
2022/04/04 01:56:15;;;;;;;;;3.50;3.50;;;;;3.89;57.76;101428.13;5055438;28;45454;-75
2022/04/04 01:58:41;;;;;;;;;3.50;3.50;;;;;3.88;58.16;101427.22;5054680;28;45549;-73
2022/04/04 02:01:16;;;;;;;;;10.50;5.50;;;;;3.85;57.97;101427.16;5053747;28;45510;-73
2022/04/04 02:03:44;;;;;;;;;8.50;4.00;;;;;3.85;57.97;101421.06;5036611;28;45390;-74
2022/04/04 02:06:10;;;;;;;;;4.00;4.00;;;;;3.85;57.73;101423.69;5054747;28;46063;-74
2022/04/04 02:08:35;;;;;;;;;5.50;5.50;;;;;3.83;58.41;101417.53;5054342;28;45449;-74
2022/04/04 02:11:02;;;;;;;;;5.00;5.00;;;;;3.79;57.96;101415.69;5061262;28;45485;-74
2022/04/04 02:13:29;;;;;;;;;7.00;6.00;;;;;3.77;57.76;101402.59;5055732;28;45592;-74
2022/04/04 02:16:02;;;;;;;;;8.25;3.00;;;;;3.77;57.49;101410.44;5053978;28;45425;-74
2022/04/04 02:18:29;;;;;;;;;4.00;4.00;;;;;3.75;58.32;101409.53;5054407;28;45319;-75
2022/04/04 02:20:55;;;;;;;;;3.50;3.00;;;;;3.73;58.20;101409.50;5053291;28;45585;-75
2022/04/04 02:23:22;;;;;;;;;2.00;1.00;;;;;3.68;58.13;101405.88;5053521;28;45444;-74
2022/04/04 02:25:49;;;;;;;;;3.75;3.75;;;;;3.66;57.93;101404.97;5054308;28;46068;-75
2022/04/04 02:28:15;;;;;;;;;4.00;4.00;;;;;3.64;58.06;101396.19;5054452;28;45530;-75
2022/04/04 02:30:42;;;;;;;;;6.00;3.75;;;;;3.63;57.86;101397.06;5053310;28;45316;-75
2022/04/04 02:33:08;;;;;;;;;2.50;1.00;;;;;3.60;58.24;101397.00;5054870;28;45391;-76
2022/04/04 02:35:34;;;;;;;;;4.50;3.25;;;;;3.60;57.77;101398.72;5054310;28;45562;-75
2022/04/04 02:38:00;;;;;;;;;4.00;4.00;;;;;3.61;58.66;101398.75;5053770;28;45349;-75
2022/04/04 02:40:26;;;;;;;;;3.75;3.25;;;;;3.59;58.01;101403.06;5070818;28;45480;-74
2022/04/04 02:42:52;;;;;;;;;4.00;3.50;;;;;3.58;58.92;101396.06;5056809;28;45454;-76
2022/04/04 02:45:18;;;;;;;;;3.25;3.00;;;;;3.58;57.91;101398.69;5059930;28;45777;-75
2022/04/04 02:47:44;;;;;;;;;2.00;2.00;;;;;3.56;58.37;101390.81;5053869;28;45464;-74
2022/04/04 02:50:10;;;;;;;;;1.50;1.50;;;;;3.50;58.88;101385.44;5053914;28;45363;-74
2022/04/04 02:52:36;;;;;;;;;9.00;6.00;;;;;3.51;59.39;101387.22;5053142;28;45325;-76
2022/04/04 02:56:28;;;;;;;;;6.25;4.00;;;;;3.46;58.99;101394.09;5053788;28;46258;-73
2022/04/04 02:57:47;;;;;;;;;3.75;3.75;;;;;3.43;58.73;101387.91;5053909;28;45390;-75
2022/04/04 03:00:14;;;;;;;;;5.00;3.75;;;;;3.46;59.58;101393.19;5053876;28;45457;-74
2022/04/04 03:02:39;;;;;;;;;3.50;3.50;;;;;3.38;59.09;101391.28;5054057;28;45573;-75
2022/04/04 03:05:04;;;;;;;;;3.00;3.00;;;;;3.40;58.71;101393.06;5054171;28;46317;-75
2022/04/04 03:07:30;;;;;;;;;2.00;2.00;;;;;3.37;59.39;101386.91;5053723;28;45481;-75
2022/04/04 03:09:55;;;;;;;;;4.50;3.00;;;;;3.32;58.93;101387.66;5067548;28;45553;-76
2022/04/04 03:12:21;;;;;;;;;5.50;5.50;;;;;3.32;59.96;101391.16;5066539;28;45390;-75
2022/04/04 03:14:46;;;;;;;;;7.00;4.00;;;;;3.29;59.93;101385.84;5057509;28;45403;-75
2022/04/04 03:17:12;;;;;;;;;6.75;3.50;;;;;3.25;60.19;101381.41;5038856;28;45370;-75
2022/04/04 03:19:37;;;;;;;;;7.75;4.00;;;;;3.24;59.25;101377.03;5056969;28;45520;-76
2022/04/04 03:22:03;;;;;;;;;6.25;6.25;;;;;3.22;59.81;101377.84;5056760;28;45451;-74
2022/04/04 03:24:28;;;;;;;;;6.75;4.00;;;;;3.21;60.42;101382.19;5060904;28;46196;-75
2022/04/04 03:26:54;;;;;;;;;6.50;4.00;;;;;3.23;59.84;101371.78;5078131;28;45644;-74
2022/04/04 03:29:19;;;;;;;;;8.50;7.00;;;;;3.21;59.94;101369.13;5066506;27;45573;-75
2022/04/04 03:31:45;;;;;;;;;5.00;4.00;;;;;3.18;60.53;101359.47;5056182;28;45544;-79
2022/04/04 03:34:11;;;;;;;;;6.25;6.25;;;;;3.17;60.24;101372.50;5078939;27;48234;-80
2022/04/04 03:36:37;;;;;;;;;3.00;3.00;;;;;3.13;60.48;101366.34;5060045;28;45478;-78
2022/04/04 03:39:03;;;;;;;;;9.50;6.50;;;;;3.12;59.91;101361.94;5066446;28;45452;-75
2022/04/04 03:41:28;;;;;;;;;7.00;6.00;;;;;3.11;60.06;101359.31;5076684;28;45498;-76
2022/04/04 03:43:54;;;;;;;;;7.50;7.50;;;;;3.11;61.06;101354.09;5076789;28;45777;-75
2022/04/04 03:46:19;;;;;;;;;7.50;6.25;;;;;3.10;60.33;101350.59;5062334;28;45503;-74
2022/04/04 03:48:44;;;;;;;;;7.25;6.50;;;;;3.05;61.06;101344.38;5056059;28;45461;-75
2022/04/04 03:51:10;;;;;;;;;10.00;7.00;;;;;3.03;60.46;101354.78;5055933;28;45499;-75
2022/04/04 03:53:35;;;;;;;;;9.00;6.75;;;;;3.03;60.38;101353.91;5055915;28;47537;-74
2022/04/04 03:56:01;;;;;;;;;7.25;7.25;;;;;3.00;60.88;101341.66;5056707;28;45379;-75
2022/04/04 03:58:27;;;;;;;;;9.00;7.00;;;;;2.99;60.26;101350.34;5057404;28;45396;-75
2022/04/04 04:00:52;;;;;;;;;7.00;7.00;;;;;2.97;60.37;101341.56;5055820;28;45535;-74
2022/04/04 04:03:18;;;;;;;;;7.00;6.75;;;;;2.98;60.12;101340.75;5038382;28;47256;-74
2022/04/04 04:05:43;;;;;;;;;11.50;9.00;;;;;2.96;60.12;101338.94;5057173;28;45474;-75
2022/04/04 04:08:09;;;;;;;;;9.25;8.50;;;;;2.93;60.67;101341.47;5056616;28;45335;-75
2022/04/04 04:10:34;;;;;;;;;11.50;7.50;;;;;2.92;61.03;101335.38;5055925;28;45681;-76
2022/04/04 04:13:02;;;;;;;;;11.50;9.00;;;;;2.90;60.13;101337.09;5056273;28;45359;-75
2022/04/04 04:15:29;;;;;;;;;12.75;10.00;;;;;2.86;61.03;101337.84;5054982;28;45387;-74
2022/04/04 04:17:54;;;;;;;;;11.00;7.00;;;;;2.90;60.60;101339.69;5055595;28;45481;-76
2022/04/04 04:20:23;;;;;;;;;9.25;7.50;;;;;2.87;60.44;101329.19;5055913;28;45521;-76
2022/04/04 04:23:05;;;;;;;;;10.25;9.25;;;;;2.85;60.55;101325.63;5054876;28;46140;-77
2022/04/04 04:25:32;;;;;;;;;9.00;7.00;;;;;2.82;60.35;101321.22;5056422;28;45412;-76
2022/04/04 04:28:00;;;;;;;;;5.00;5.00;;;;;2.80;60.95;101316.81;5064676;28;45472;-75
2022/04/04 04:30:26;;;;;;;;;9.00;7.00;;;;;2.81;61.32;101315.97;5076032;27;45549;-75
2022/04/04 04:32:53;;;;;;;;;6.25;5.50;;;;;2.75;61.15;101314.09;5058516;28;46240;-76
2022/04/04 04:35:19;;;;;;;;;15.50;12.25;;;;;2.79;60.77;101320.25;5055800;28;45447;-75
2022/04/04 04:37:45;;;;;;;;;8.75;7.00;;;;;2.76;60.57;101314.97;5055478;28;45447;-76
2022/04/04 04:40:11;;;;;;;;;9.25;6.25;;;;;2.67;61.26;101300.84;5055841;28;45383;-76
2022/04/04 04:42:37;;;;;;;;;11.50;11.00;;;;;2.76;61.24;101314.97;5037817;28;45407;-76
2022/04/04 04:45:04;;;;;;;;;7.00;6.00;;;;;2.74;61.04;101307.09;5055500;28;45496;-75
2022/04/04 04:47:30;;;;;;;;;11.00;8.50;;;;;2.74;60.54;101301.00;5055896;28;45666;-75
2022/04/04 04:49:56;;;;;;;;;10.00;9.50;;;;;2.74;61.23;101311.44;5055343;28;45370;-75
2022/04/04 04:52:22;;;;;;;;;6.00;6.00;;;;;2.67;60.87;101295.63;5055028;28;45912;-74
2022/04/04 04:54:47;;;;;;;;;7.50;7.50;;;;;2.71;60.45;101303.53;5054891;28;45366;-74
2022/04/04 04:57:12;;;;;;;;;11.50;7.50;;;;;2.70;60.77;101309.59;5055897;28;45402;-75
2022/04/04 04:59:38;;;;;;;;;11.00;7.00;;;;;2.67;60.34;101300.84;5055583;28;45540;-75
2022/04/04 05:02:03;;;;;;;;;5.50;5.50;;;;;2.69;60.83;101307.81;5055742;28;46370;-75
2022/04/04 05:04:29;;;;;;;;;3.25;3.25;;;;;2.66;60.89;101300.81;5056943;28;45736;-74
2022/04/04 05:06:54;;;;;;;;;8.50;6.00;;;;;2.65;60.55;101302.53;5057647;28;45579;-75
2022/04/04 05:09:20;;;;;;;;;8.25;8.25;;;;;2.64;60.60;101299.88;5075563;27;45457;-75
2022/04/04 05:11:46;;;;;;;;;6.00;6.00;;;;;2.67;60.32;101306.09;5070302;27;46368;-76
2022/04/04 05:14:17;;;;;;;;;7.00;5.50;;;;;2.63;60.60;101299.00;5054939;28;45532;-74
2022/04/04 05:16:44;;;;;;;;;6.75;6.00;;;;;2.65;60.99;101307.75;5073035;27;45470;-76
2022/04/04 05:19:10;;;;;;;;;9.25;6.75;;;;;2.65;61.34;101296.44;5037269;28;45624;-76
2022/04/04 05:21:35;;;;;;;;;8.50;7.00;;;;;2.67;60.90;101306.09;5054783;28;45450;-75
2022/04/04 05:24:02;;;;;;;;;6.75;6.75;;;;;2.66;61.74;101299.09;5054917;28;45429;-76
2022/04/04 05:26:29;;;;;;;;;6.25;6.25;;;;;2.70;60.67;101294.81;5036725;28;45590;-76
2022/04/04 05:28:55;;;;;;;;;6.00;6.00;;;;;2.71;61.15;101300.94;5055486;28;45347;-76
2022/04/04 05:31:20;;;;;;;;;6.00;6.00;;;;;2.71;60.89;101295.72;5055402;28;46320;-76
2022/04/04 05:33:46;;;;;;;;;8.50;6.00;;;;;2.76;61.43;101304.53;5053434;28;45343;-76
2022/04/04 05:36:12;;;;;;;;;9.00;9.00;;;;;2.78;61.59;101302.81;5054443;28;45490;-76
2022/04/04 05:38:37;;;;;;;;;9.00;6.75;;;;;2.81;61.18;101303.78;5054913;28;45451;-76
2022/04/04 05:41:03;;;;;;;;;3.75;3.75;;;;;2.96;60.77;101297.13;5055079;28;46307;-76
2022/04/04 05:43:31;;;;;;;;;6.75;6.75;;;;;3.18;60.27;101288.94;5054755;28;45400;-79
2022/04/04 05:45:56;;;;;;;;;6.75;6.75;;;;;3.67;59.46;101291.69;5036153;28;45463;-77
2022/04/04 05:48:25;;;;;;;;;8.00;6.00;;;;;4.30;57.99;101291.06;5054788;28;45415;-77
2022/04/04 05:50:51;;;;;;;;;11.00;7.00;;;;;5.06;55.77;101291.41;5054336;28;45818;-76
2022/04/04 05:53:16;;;;;;;;;8.50;8.50;;;;;5.76;53.89;101280.03;5054195;28;45420;-76
2022/04/04 05:55:41;;;;;;;;;7.00;7.00;;;;;6.56;52.32;101285.19;5059702;28;45312;-76
2022/04/04 05:58:07;;;;;;;;;7.00;7.00;;;;;7.28;50.73;101287.41;5071953;27;45465;-77
2022/04/04 06:00:32;;;;;;;;;12.00;7.00;;;;;8.07;48.08;101272.72;5052902;28;45507;-76
2022/04/04 06:02:58;;;;;;;;;8.50;7.00;;;;;8.77;46.91;101268.34;5053640;28;45364;-80
2022/04/04 06:05:23;;;;;;;;;10.25;8.00;;;;;9.42;44.99;101274.31;5041054;28;45500;-81
2022/04/04 06:07:48;;;;;;;;;10.25;6.25;;;;;10.13;43.66;101267.78;5057895;28;45367;-82
2022/04/04 06:10:15;;;;;;;;;12.25;11.50;;;;;10.74;41.73;101266.41;5055787;28;45450;-83
2022/04/04 06:12:42;;;;;;;;;8.75;8.00;;;;;11.49;40.62;101266.47;5045510;28;45469;-81
2022/04/04 06:15:08;;;;;;;;;11.00;11.00;;;;;12.14;39.06;101261.16;5048516;28;45477;-81
2022/04/04 06:17:33;;;;;;;;;10.00;7.75;;;;;12.74;37.65;101269.91;5055371;28;45529;-82
2022/04/04 06:19:59;;;;;;;;;10.00;8.00;;;;;13.39;36.63;101256.28;5058550;28;46163;-77
2022/04/04 06:22:25;;;;;;;;;10.25;7.00;;;;;13.81;35.74;101258.91;5055984;28;45550;-76
2022/04/04 06:24:51;;;;;;;;;6.75;4.25;;;;;14.30;34.59;101251.56;5054978;28;45470;-76
2022/04/04 06:27:16;;;;;;;;;4.50;4.50;;;;;14.93;33.67;101254.41;5053529;28;45405;-76
2022/04/04 06:29:42;;;;;;;;;8.50;5.00;;;;;15.49;32.30;101250.13;5035834;28;45333;-75
2022/04/04 06:32:10;;;;;;;;;8.75;7.50;;;;;16.01;31.29;101247.72;5053983;28;45498;-77
2022/04/04 06:34:36;;;;;;;;;6.50;6.50;;;;;16.26;30.61;101237.09;5053357;28;45565;-76
2022/04/04 06:37:02;;;;;;;;;4.50;2.50;;;;;16.72;29.92;101235.53;5052734;28;45617;-75
2022/04/04 06:39:27;;;;;;;;;3.50;3.50;;;;;17.10;29.15;101238.66;5053376;28;46175;-75
2022/04/04 06:41:53;;;;;;;;;5.00;4.75;;;;;17.37;28.63;101234.09;5053459;28;45497;-75
2022/04/04 06:44:18;;;;;;;;;5.00;5.00;;;;;17.73;27.86;101238.94;5064259;27;45705;-76
2022/04/04 06:46:44;;;;;;;;;8.00;5.00;;;;;18.08;27.38;101230.44;5070811;28;45417;-75
2022/04/04 06:49:10;;;;;;;;;5.00;5.00;;;;;18.45;26.50;101235.13;5066798;28;46036;-76
2022/04/04 06:51:35;;;;;;;;;4.00;4.00;;;;;18.75;25.54;101231.19;5056176;28;45391;-74
2022/04/04 06:54:04;;;;;;;;;5.00;2.50;;;;;19.10;25.23;101231.47;5055314;28;45403;-78
2022/04/04 06:56:31;;;;;;;;;4.25;4.25;;;;;19.41;24.66;101222.88;5058175;27;45569;-77
2022/04/04 06:58:57;;;;;;;;;5.00;5.00;;;;;19.52;24.44;101225.94;5050204;28;46963;-76
2022/04/04 07:01:22;;;;;;;;;5.25;4.75;;;;;19.51;23.48;101212.59;5061074;27;45501;-76
2022/04/04 07:03:48;;;;;;;;;6.75;5.00;;;;;19.90;23.79;101217.00;5058470;28;45500;-76
2022/04/04 07:06:13;;;;;;;;;3.00;1.50;;;;;19.71;22.68;101206.31;5055925;28;45443;-75
2022/04/04 07:08:38;;;;;;;;;4.50;2.25;;;;;19.84;22.70;101210.16;5053780;28;46135;-75
2022/04/04 07:11:05;;;;;;;;;2.25;2.25;;;;;20.02;22.21;101207.50;5051034;28;45411;-74
2022/04/04 07:13:32;;;;;;;;;2.00;2.00;;;;;19.92;21.88;101208.91;5053036;28;45560;-75
2022/04/04 07:15:58;;;;;;;;;3.00;3.00;;;;;20.03;22.19;101202.06;5058671;28;45528;-76
2022/04/04 07:18:23;;;;;;;;;1.25;1.25;;;;;20.15;21.93;101202.41;5057669;28;46896;-79
2022/04/04 07:20:49;;;;;;;;;1.25;1.25;;;;;20.64;21.69;101199.88;5059118;28;45288;-79
2022/04/04 07:23:14;;;;;;;;;1.75;1.00;;;;;20.97;21.18;101198.19;5058698;28;45263;-79
2022/04/04 07:25:40;;;;;;;;;1.00;1.00;;;;;21.18;20.85;101191.66;5058713;28;45543;-79
2022/04/04 07:28:05;;;;;;;;;1.25;1.25;;;;;21.57;20.40;101192.25;5044675;28;46183;-79
2022/04/04 07:30:30;;;;;;;;;1.50;1.00;;;;;21.64;20.44;101183.72;5056086;28;45423;-79
2022/04/04 07:32:56;;;;;;;;;1.25;1.25;;;;;21.81;20.98;101188.13;5056207;28;45348;-80
2022/04/04 07:35:22;;;;;;;;;1.00;1.00;;;;;22.03;20.06;101186.91;5057066;28;45438;-80
2022/04/04 07:37:49;;;;;;;;;3.00;3.00;;;;;22.21;19.81;101186.78;5056723;28;46068;-75
2022/04/04 07:40:16;;;;;;;;;4.00;1.00;;;;;22.28;20.09;101172.00;5060786;28;45395;-77
2022/04/04 07:42:44;;;;;;;;;4.00;2.00;;;;;22.31;20.16;101182.63;5058999;28;45436;-79
2022/04/04 07:45:11;;;;;;;;;1.75;1.75;;;;;22.36;20.28;101175.13;5039019;28;45590;-80
2022/04/04 07:47:37;;;;;;;;;3.00;3.00;;;;;22.76;19.69;101175.41;5060087;28;46478;-78
2022/04/04 07:50:07;;;;;;;;;2.00;2.00;;;;;23.02;19.34;101165.66;5058842;28;45557;-80
2022/04/04 07:52:32;;;;;;;;;4.00;4.00;;;;;22.99;19.04;101162.31;5055372;28;45527;-79
2022/04/04 07:54:58;;;;;;;;;2.00;2.00;;;;;23.09;19.27;101162.59;5056212;28;45416;-79
2022/04/04 07:57:23;;;;;;;;;1.25;1.25;;;;;23.15;19.13;101152.28;5056818;28;45358;-79
2022/04/04 07:59:51;;;;;;;;;2.25;1.00;;;;;23.06;19.32;101163.63;5056135;28;45925;-78
2022/04/04 08:02:17;;;;;;;;;1.00;0.00;;;;;22.49;18.95;101165.34;5056184;28;45624;-79
2022/04/04 08:04:43;;;;;;;;;1.50;1.50;;;;;22.55;18.78;101158.72;5057591;28;45421;-79
2022/04/04 08:07:08;;;;;;;;;2.00;2.00;;;;;22.91;19.08;101148.44;5036418;28;45458;-79
2022/04/04 08:09:34;;;;;;;;;1.75;1.75;;;;;22.95;19.23;101158.06;5062069;28;45383;-78
2022/04/04 08:12:01;;;;;;;;;5.00;0.50;;;;;22.73;18.88;101156.72;5052966;28;45363;-79
2022/04/04 08:14:26;;;;;;;;;2.00;2.00;;;;;22.60;19.47;101143.13;5033267;28;45394;-79
2022/04/04 08:16:52;;;;;;;;;1.00;1.00;;;;;22.73;19.63;101151.34;5057861;28;46079;-79
2022/04/04 08:19:17;;;;;;;;;3.50;3.50;;;;;22.82;19.54;101158.84;5061688;28;45356;-78
2022/04/04 08:21:44;;;;;;;;;1.75;1.75;;;;;22.68;20.17;101127.38;5055773;28;45489;-81
2022/04/04 08:24:13;;;;;;;;;2.00;2.00;;;;;22.94;19.40;101141.03;5054787;28;45467;-80
2022/04/04 08:26:39;;;;;;;;;2.75;1.25;;;;;23.05;19.32;101143.06;5055841;28;45553;-75
2022/04/04 08:29:10;;;;;;;;;4.50;1.00;;;;;23.25;19.27;101136.41;5052516;28;45545;-77
2022/04/04 08:31:38;;;;;;;;;2.00;2.00;;;;;23.51;19.62;101128.47;5054943;28;45550;-75
2022/04/04 08:34:04;;;;;;;;;1.75;1.75;;;;;23.77;19.15;101126.72;5050627;28;45608;-74
2022/04/04 08:36:29;;;;;;;;;1.50;1.50;;;;;23.55;18.26;101127.25;5055526;28;45426;-76
2022/04/04 08:38:54;;;;;;;;;3.00;1.75;;;;;23.40;19.10;101123.78;5056844;28;45411;-74
2022/04/04 08:41:22;;;;;;;;;2.25;2.25;;;;;23.75;18.78;101117.88;5056514;28;45419;-74
2022/04/04 08:43:51;;;;;;;;;0.00;0.00;;;;;23.36;18.47;101123.09;5056399;28;45498;-75
2022/04/04 08:46:17;;;;;;;;;2.00;2.00;;;;;23.32;18.97;101121.56;5055334;28;46301;-75
2022/04/04 08:48:44;;;;;;;;;4.25;3.00;;;;;23.33;18.44;101107.09;5054085;28;45375;-75
2022/04/04 08:51:10;;;;;;;;;2.00;2.00;;;;;23.30;18.78;101109.16;5054929;28;45406;-74
2022/04/04 08:53:38;;;;;;;;;1.00;1.00;;;;;23.06;18.99;101115.13;5053842;28;45654;-75
2022/04/04 08:56:05;;;;;;;;;2.75;2.00;;;;;22.85;19.16;101114.66;5037320;28;45443;-75
2022/04/04 08:58:33;;;;;;;;;3.00;2.00;;;;;22.91;19.18;101105.31;5052997;28;45427;-73
2022/04/04 09:01:00;;;;;;;;;2.00;1.00;;;;;22.80;19.28;101106.00;5050313;28;45471;-73
2022/04/04 09:03:31;;;;;;;;;1.75;0.00;;;;;22.64;19.20;101106.13;5053423;28;45391;-74
2022/04/04 09:05:58;;;;;;;;;1.50;1.25;;;;;22.68;19.20;101105.84;5046003;28;46211;-74
2022/04/04 09:08:26;;;;;;;;;1.00;1.00;;;;;22.61;18.52;101098.19;5058107;28;45489;-73
2022/04/04 09:10:54;;;;;;;;;1.00;1.00;;;;;22.51;19.11;101101.47;5052919;28;45557;-74
2022/04/04 09:13:22;;;;;;;;;1.00;1.00;;;;;22.77;18.55;101088.19;5054857;28;45512;-74
2022/04/04 09:15:54;;;;;;;;;1.00;1.00;;;;;23.30;18.70;101090.28;5053088;28;46161;-73
2022/04/04 09:18:43;;;;;;;;;1.00;1.00;;;;;23.18;18.06;101079.31;5055349;28;45655;-75
2022/04/04 09:21:12;;;;;;;;;3.25;2.00;;;;;23.13;18.48;101086.84;5053303;28;45344;-74
2022/04/04 09:23:46;;;;;;;;;0.00;0.00;;;;;23.07;18.42;101096.16;5051452;28;45390;-77
2022/04/04 09:26:37;;;;;;;;;1.00;1.00;;;;;23.54;18.00;101088.66;5053766;28;45390;-79
2022/04/04 09:29:08;;;;;;;;;2.00;1.75;;;;;23.35;17.75;101088.13;5043605;28;45496;-78
2022/04/04 09:31:34;;;;;;;;;0.50;0.50;;;;;23.20;17.94;101068.44;5059199;28;45377;-78
2022/04/04 09:34:02;;;;;;;;;0.00;0.00;;;;;22.81;18.21;101073.56;5056737;28;45471;-78
2022/04/04 09:36:29;;;;;;;;;1.00;1.00;;;;;22.60;18.21;101075.78;5058226;28;46220;-79
2022/04/04 09:39:02;;;;;;;;;2.00;2.00;;;;;22.48;18.97;101055.88;5056892;28;45474;-79
2022/04/04 09:41:28;;;;;;;;;0.00;0.00;;;;;22.59;18.72;101057.91;5058108;28;45517;-78
2022/04/04 09:44:04;;;;;;;;;4.00;4.00;;;;;22.93;17.97;101050.38;5054911;28;45470;-79
2022/04/04 09:46:32;;;;;;;;;1.00;1.00;;;;;23.08;17.78;101072.78;5048912;28;47066;-80
2022/04/04 09:49:10;;;;;;;;;1.00;0.00;;;;;23.08;16.53;101053.91;5033539;28;45514;-80
2022/04/04 09:51:56;;;;;;;;;1.00;1.00;;;;;23.11;17.23;101052.84;5051148;28;45480;-79
2022/04/04 09:54:24;;;;;;;;;0.00;0.00;;;;;22.75;17.98;101054.25;5009683;28;45515;-80
2022/04/04 09:57:08;;;;;;;;;0.00;0.00;;;;;22.70;17.86;101050.03;5007725;28;45472;-78
2022/04/04 09:59:36;;;;;;;;;0.00;0.00;;;;;22.43;18.47;101041.84;5007702;28;45467;-75
2022/04/04 10:02:03;;;;;;;;;0.00;0.00;;;;;22.05;18.40;101045.06;5010146;28;45549;-76
2022/04/04 10:04:31;;;;;;;;;1.50;1.00;;;;;21.82;18.48;101036.53;5006798;28;45944;-74
2022/04/04 10:06:58;;;;;;;;;0.00;0.00;;;;;22.06;18.36;101048.59;5008690;28;45564;-75
2022/04/04 10:09:25;;;;;;;;;4.75;2.00;;;;;22.04;19.01;101043.31;5007122;28;45526;-74
2022/04/04 10:11:51;;;;;;;;;2.50;2.50;;;;;21.90;18.23;101041.47;5006295;28;45550;-75
2022/04/04 10:14:19;;;;;;;;;0.75;0.75;;;;;21.82;18.49;101031.16;5007821;28;45524;-75
2022/04/04 10:16:47;;;;;;;;;0.50;0.50;;;;;22.02;18.56;101034.47;5006314;28;46280;-75
2022/04/04 10:19:12;;;;;;;;;1.00;0.00;;;;;21.94;17.88;101029.56;5010379;28;45519;-74
2022/04/04 10:21:37;;;;;;;;;0.00;0.00;;;;;22.10;17.89;101016.03;5006973;28;45493;-74
2022/04/04 10:24:06;;;;;;;;;0.50;0.50;;;;;22.18;18.24;101015.53;5008587;28;45461;-76
2022/04/04 10:26:34;;;;;;;;;2.50;1.00;;;;;22.42;18.02;101026.66;5012738;28;45507;-79
2022/04/04 10:29:15;;;;;;;;;0.00;0.00;;;;;22.81;17.90;101013.44;5010627;28;45419;-81
2022/04/04 10:31:57;;;;;;;;;0.00;0.00;;;;;22.97;17.25;101013.31;5040974;28;45442;-79
2022/04/04 10:34:25;;;;;;;;;1.00;1.00;;;;;22.82;17.30;100991.78;5060806;28;45481;-79
2022/04/04 10:37:07;;;;;;;;;0.00;0.00;;;;;23.00;17.07;101008.59;5062063;28;45409;-79
2022/04/04 10:39:44;;;;;;;;;0.00;0.00;;;;;22.85;16.75;100988.00;5062653;28;45528;-79
2022/04/04 10:42:30;;;;;;;;;0.00;0.00;;;;;22.86;16.35;100978.97;5064218;28;45617;-81
2022/04/04 10:45:09;;;;;;;;;1.00;1.00;;;;;22.93;16.63;100983.00;5037769;27;45517;-79
2022/04/04 10:47:44;;;;;;;;;2.00;0.00;;;;;22.57;16.95;100980.88;5053146;28;45565;-81
2022/04/04 10:50:24;;;;;;;;;0.00;0.00;;;;;22.05;18.08;100972.41;5054953;28;45414;-75
2022/04/04 10:52:53;;;;;;;;;0.00;0.00;;;;;21.25;18.09;100975.34;5052394;28;45462;-75
2022/04/04 10:55:34;;;;;;;;;0.00;0.00;;;;;21.01;18.44;100987.50;5054539;28;45507;-81
2022/04/04 10:58:13;;;;;;;;;0.25;0.25;;;;;20.59;17.98;100979.09;5051702;27;46314;-79
2022/04/04 11:00:57;;;;;;;;;1.25;1.25;;;;;20.46;18.82;100973.50;5051847;28;45498;-77
2022/04/04 11:03:38;;;;;;;;;1.00;1.00;;;;;20.36;18.83;100972.28;5036574;28;45561;-79
2022/04/04 11:09:12;;;;;;;;;1.50;0.50;;;;;19.43;19.33;100962.84;5055207;28;45870;-76
2022/04/04 11:11:54;;;;;;;;;1.25;0.75;;;;;19.11;19.75;100959.97;5052951;28;45513;-76
2022/04/04 11:14:28;;;;;;;;;1.25;1.25;;;;;18.97;20.02;100958.84;5049066;28;45422;-76
2022/04/04 11:17:23;;;;;;;;;1.00;1.00;;;;;18.56;20.53;100939.41;5060264;28;45407;-76
2022/04/04 11:20:04;;;;;;;;;2.00;2.00;;;;;18.45;21.14;100953.28;5052525;28;45585;-75
2022/04/04 11:22:34;;;;;;;;;1.00;1.00;;;;;18.33;21.15;100932.47;5049285;28;45404;-75
2022/04/04 11:25:05;;;;;;;;;1.00;1.00;;;;;18.06;21.34;100938.13;5053519;28;45462;-79
2022/04/04 11:27:35;;;;;;;;;0.75;0.75;;;;;17.86;21.55;100936.34;5057000;28;45518;-80
2022/04/04 11:30:05;;;;;;;;;0.50;0.50;;;;;17.77;21.76;100926.91;5055190;28;45557;-79
2022/04/04 11:32:40;;;;;;;;;0.00;0.00;;;;;17.86;21.79;100923.84;5056383;28;45521;-82
2022/04/04 11:35:11;;;;;;;;;1.00;1.00;;;;;18.11;21.76;100922.75;5051599;28;45561;-75